Time;durP1;ratioP1;P1;durP2;ratioP2;P2;SDS_P1;SDS_P2;PMS_P1;PMS_P2;Temp;Humidity;BMP_temperature;BMP_pressure;BME280_temperature;BME280_humidity;BME280_pressure;Samples;Min_cycle;Max_cycle;Signal;HPM_P1;HPM_P2
2022/04/29 00:02:06;;;;;;;;;;;;;;;25.78;13.37;101075.06;5135649;27;19916;-73
2022/04/29 00:04:31;;;;;;;;;;;;;;;25.78;13.15;101075.88;5117260;27;20288;-75
2022/04/29 00:06:56;;;;;;;;;;;;;;;25.78;13.35;101083.28;5135187;27;19921;-75
2022/04/29 00:09:22;;;;;;;;;;;;;;;25.77;13.28;101084.41;5135565;27;19915;-75
2022/04/29 00:11:47;;;;;;;;;;;;;;;25.77;13.19;101081.66;5135111;27;20270;-74
2022/04/29 00:14:14;;;;;;;;;;;;;;;25.77;13.16;101087.13;5135431;27;19915;-74
2022/04/29 00:16:39;;;;;;;;;;;;;;;25.77;13.11;101087.13;5134970;27;20366;-73
2022/04/29 00:19:04;;;;;;;;;;;;;;;25.77;13.05;101087.13;5135335;27;19985;-75
2022/04/29 00:21:30;;;;;;;;;;;;;;;25.75;13.04;101090.16;5134975;27;19919;-74
2022/04/29 00:23:56;;;;;;;;;;;;;;;25.76;13.13;101094.50;5115583;28;19923;-75
2022/04/29 00:26:21;;;;;;;;;;;;;;;25.76;12.94;101090.97;5134875;27;19916;-74
2022/04/29 00:28:47;;;;;;;;;;;;;;;25.76;13.22;101090.97;5134995;27;19923;-75
2022/04/29 00:31:12;;;;;;;;;;;;;;;25.77;13.09;101087.13;5135205;27;19927;-74
2022/04/29 00:33:38;;;;;;;;;;;;;;;25.76;13.06;101085.50;5134809;27;19916;-74
2022/04/29 00:36:06;;;;;;;;;;;;;;;25.76;13.00;101090.97;5134669;27;19958;-75
2022/04/29 00:38:31;;;;;;;;;;;;;;;25.76;13.16;101091.78;5134969;27;19966;-76
2022/04/29 00:40:56;;;;;;;;;;;;;;;25.76;13.03;101096.44;5135084;27;19964;-75
2022/04/29 00:43:22;;;;;;;;;;;;;;;25.75;13.12;101105.72;5135024;27;20414;-74
2022/04/29 00:45:47;;;;;;;;;;;;;;;25.74;12.83;101102.19;5134667;27;19915;-74
2022/04/29 00:48:12;;;;;;;;;;;;;;;25.76;13.09;101110.13;5134614;27;19926;-74
2022/04/29 00:50:37;;;;;;;;;;;;;;;25.77;12.81;101106.31;5134980;28;19920;-74
2022/04/29 00:53:03;;;;;;;;;;;;;;;25.75;12.97;101111.19;5134671;28;19923;-75
2022/04/29 00:55:28;;;;;;;;;;;;;;;25.74;12.94;101115.88;5135358;28;19916;-75
2022/04/29 00:57:59;;;;;;;;;;;;;;;25.75;13.03;101111.19;5134457;28;20284;-74
2022/04/29 01:00:24;;;;;;;;;;;;;;;25.74;13.06;101112.31;5116266;28;19923;-73
2022/04/29 01:02:51;;;;;;;;;;;;;;;25.74;12.71;101115.88;5134967;28;19919;-74
2022/04/29 01:05:17;;;;;;;;;;;;;;;25.74;12.99;101115.88;5116541;28;19927;-75
2022/04/29 01:07:43;;;;;;;;;;;;;;;25.74;12.95;101126.81;5135244;28;20260;-74
2022/04/29 01:10:10;;;;;;;;;;;;;;;25.73;12.89;101130.63;5134434;28;19923;-76
2022/04/29 01:12:35;;;;;;;;;;;;;;;25.74;13.06;101126.81;5134448;28;20323;-74
2022/04/29 01:15:27;;;;;;;;;;;;;;;25.73;12.88;101125.16;5116274;28;19924;-72
2022/04/29 01:17:54;;;;;;;;;;;;;;;25.74;12.84;101128.75;5130388;28;19915;-75
2022/04/29 01:20:20;;;;;;;;;;;;;;;25.73;12.69;101129.81;5134529;28;20007;-73
2022/04/29 01:22:46;;;;;;;;;;;;;;;25.74;12.96;101131.47;5134341;28;19930;-74
2022/04/29 01:25:11;;;;;;;;;;;;;;;25.73;12.58;101135.28;5134153;28;19920;-75
2022/04/29 01:27:37;;;;;;;;;;;;;;;25.73;12.72;101132.56;5134318;28;19915;-74
2022/04/29 01:30:08;;;;;;;;;;;;;;;25.72;12.68;101139.97;5134609;28;19916;-77
2022/04/29 01:32:36;;;;;;;;;;;;;;;25.66;12.74;101147.34;5134263;28;20365;-74
2022/04/29 01:35:01;;;;;;;;;;;;;;;25.72;12.76;101155.56;5135176;27;19999;-75
2022/04/29 01:37:27;;;;;;;;;;;;;;;25.72;12.87;101150.91;5138379;27;19950;-74
2022/04/29 01:39:52;;;;;;;;;;;;;;;25.71;12.84;101146.50;5138203;27;19915;-73
2022/04/29 01:42:17;;;;;;;;;;;;;;;25.73;12.68;101154.47;5138069;27;19920;-75
2022/04/29 01:44:42;;;;;;;;;;;;;;;25.73;12.69;101162.69;5138311;27;19931;-75
2022/04/29 01:47:08;;;;;;;;;;;;;;;25.72;12.58;101159.13;5119571;27;19916;-74
2022/04/29 01:49:33;;;;;;;;;;;;;;;25.73;12.62;101162.69;5138166;27;19915;-73
2022/04/29 01:51:59;;;;;;;;;;;;;;;25.72;12.62;101167.34;5138292;27;19923;-73
2022/04/29 01:54:25;;;;;;;;;;;;;;;25.71;12.62;101176.63;5138203;27;19916;-75
2022/04/29 01:56:52;;;;;;;;;;;;;;;25.72;12.62;101172.81;5119482;27;20357;-75
2022/04/29 01:59:18;;;;;;;;;;;;;;;25.73;12.71;101165.41;5139002;27;19915;-76
2022/04/29 02:01:43;;;;;;;;;;;;;;;25.72;12.71;101167.34;5137689;27;20361;-74
2022/04/29 02:04:09;;;;;;;;;;;;;;;25.71;12.61;101171.16;5137613;27;19915;-74
2022/04/29 02:06:37;;;;;;;;;;;;;;;25.71;12.56;101179.38;5119127;27;19945;-75
2022/04/29 02:09:02;;;;;;;;;;;;;;;25.71;12.39;101182.09;5138138;27;19916;-74
2022/04/29 02:11:28;;;;;;;;;;;;;;;25.72;12.64;101177.47;5119667;27;19915;-76
2022/04/29 02:13:53;;;;;;;;;;;;;;;25.70;12.61;101176.91;5137434;27;20412;-73
2022/04/29 02:16:19;;;;;;;;;;;;;;;25.70;12.33;101179.63;5137847;27;19916;-73
2022/04/29 02:18:45;;;;;;;;;;;;;;;25.70;12.59;101166.78;5137442;27;19926;-74
2022/04/29 02:21:10;;;;;;;;;;;;;;;25.68;12.34;101178.00;5137688;27;19919;-75
2022/04/29 02:23:35;;;;;;;;;;;;;;;25.68;12.30;101178.00;5137143;27;20363;-75
2022/04/29 02:26:00;;;;;;;;;;;;;;;25.68;12.52;101180.75;5137503;27;19920;-74
2022/04/29 02:28:27;;;;;;;;;;;;;;;25.68;12.37;101178.00;5137447;27;20494;-73
2022/04/29 02:30:54;;;;;;;;;;;;;;;25.67;12.42;101181.81;5137438;27;19937;-74
2022/04/29 02:33:19;;;;;;;;;;;;;;;25.69;12.36;101195.25;5137105;27;20053;-74
2022/04/29 02:35:45;;;;;;;;;;;;;;;25.68;12.46;101188.09;5137196;27;20381;-76
2022/04/29 02:38:10;;;;;;;;;;;;;;;25.68;12.40;101194.44;5137034;27;19925;-74
2022/04/29 02:40:35;;;;;;;;;;;;;;;25.67;12.43;101195.50;5137067;27;19922;-73
2022/04/29 02:43:00;;;;;;;;;;;;;;;25.67;12.43;101192.78;5137187;27;19919;-74
2022/04/29 02:45:26;;;;;;;;;;;;;;;25.66;12.38;101199.34;5137056;27;20426;-74
2022/04/29 02:47:51;;;;;;;;;;;;;;;25.66;12.23;101199.34;5136308;27;19959;-75
2022/04/29 02:50:16;;;;;;;;;;;;;;;25.67;12.07;101211.13;5137309;27;19917;-73
2022/04/29 02:52:41;;;;;;;;;;;;;;;25.67;12.33;101208.38;5137672;27;19916;-74
2022/04/29 02:55:07;;;;;;;;;;;;;;;25.67;12.26;101209.19;5137231;27;19922;-74
2022/04/29 02:57:32;;;;;;;;;;;;;;;25.66;12.32;101203.97;5137899;27;20219;-76
2022/04/29 02:59:57;;;;;;;;;;;;;;;25.67;12.20;101211.13;5119121;27;20008;-74
2022/04/29 03:02:23;;;;;;;;;;;;;;;25.67;12.23;101214.66;5137309;27;20052;-74
2022/04/29 03:04:48;;;;;;;;;;;;;;;25.67;12.05;101209.19;5137161;27;20340;-74
2022/04/29 03:07:13;;;;;;;;;;;;;;;25.67;12.03;101214.66;5136730;27;19926;-74
2022/04/29 03:09:38;;;;;;;;;;;;;;;25.66;12.08;101221.25;5118375;27;20373;-75
2022/04/29 03:12:04;;;;;;;;;;;;;;;25.66;11.99;101221.25;5136667;27;19916;-75
2022/04/29 03:14:29;;;;;;;;;;;;;;;25.67;12.06;101219.34;5136541;27;19926;-74
2022/04/29 03:16:55;;;;;;;;;;;;;;;25.65;12.08;101216.84;5136205;27;19919;-75
2022/04/29 03:19:20;;;;;;;;;;;;;;;25.67;11.94;101225.63;5136217;27;19926;-74
2022/04/29 03:21:45;;;;;;;;;;;;;;;25.70;11.91;101234.38;5136245;27;19951;-76
2022/04/29 03:24:11;;;;;;;;;;;;;;;25.70;12.04;101235.22;5136140;27;19923;-74
2022/04/29 03:26:37;;;;;;;;;;;;;;;25.70;12.01;101229.75;5136035;27;20419;-73
2022/04/29 03:29:02;;;;;;;;;;;;;;;25.70;12.11;101229.75;5136096;27;19961;-75
2022/04/29 03:31:28;;;;;;;;;;;;;;;25.72;12.11;101234.97;5136037;27;19958;-76
2022/04/29 03:33:53;;;;;;;;;;;;;;;25.72;12.13;101245.91;5136282;27;20358;-74
2022/04/29 03:36:18;;;;;;;;;;;;;;;25.73;12.16;101233.84;5136606;27;20364;-74
2022/04/29 03:38:43;;;;;;;;;;;;;;;25.75;12.11;101242.59;5136470;27;19974;-76
2022/04/29 03:41:09;;;;;;;;;;;;;;;25.74;12.10;101246.47;5136492;27;19941;-76
2022/04/29 03:43:34;;;;;;;;;;;;;;;25.75;12.13;101240.72;5137082;27;20002;-77
2022/04/29 03:46:00;;;;;;;;;;;;;;;25.76;12.00;101245.09;5136465;27;20309;-74
2022/04/29 03:48:25;;;;;;;;;;;;;;;25.75;12.15;101248.09;5136223;27;19915;-74
2022/04/29 03:50:50;;;;;;;;;;;;;;;25.76;12.10;101252.47;5136044;27;19919;-74
2022/04/29 03:53:16;;;;;;;;;;;;;;;25.76;12.19;101268.91;5136536;27;19916;-77
2022/04/29 03:55:41;;;;;;;;;;;;;;;25.76;12.11;101269.72;5135764;27;20365;-76
2022/04/29 03:58:06;;;;;;;;;;;;;;;25.76;12.13;101264.25;5136330;27;19917;-76
2022/04/29 04:00:32;;;;;;;;;;;;;;;25.76;11.96;101266.16;5135980;27;20384;-74
2022/04/29 04:02:58;;;;;;;;;;;;;;;25.77;11.96;101273.31;5136092;27;19919;-76
2022/04/29 04:05:23;;;;;;;;;;;;;;;25.78;12.12;101274.94;5135900;27;19922;-77
2022/04/29 04:07:48;;;;;;;;;;;;;;;25.80;12.12;101279.06;5135761;27;20229;-76
2022/04/29 04:10:14;;;;;;;;;;;;;;;25.80;12.02;101283.69;5135894;27;19923;-75
2022/04/29 04:12:43;;;;;;;;;;;;;;;25.80;11.90;101289.16;5135637;27;20373;-75
2022/04/29 04:15:09;;;;;;;;;;;;;;;25.81;11.90;101285.34;5135837;27;19915;-74
2022/04/29 04:17:34;;;;;;;;;;;;;;;25.79;12.08;101291.09;5135687;27;20318;-74
2022/04/29 04:19:59;;;;;;;;;;;;;;;25.82;11.73;101292.50;5136033;27;19966;-76
2022/04/29 04:22:25;;;;;;;;;;;;;;;25.87;11.94;101292.47;5135772;27;19915;-76
2022/04/29 04:24:50;;;;;;;;;;;;;;;25.88;12.07;101302.34;5117016;27;20331;-75
2022/04/29 04:27:15;;;;;;;;;;;;;;;25.90;12.02;101302.91;5136538;27;19916;-74
2022/04/29 04:29:42;;;;;;;;;;;;;;;25.91;12.04;101310.03;5134804;27;20458;-74
2022/04/29 04:32:08;;;;;;;;;;;;;;;25.91;11.95;101303.75;5136200;27;19942;-74
2022/04/29 04:34:51;;;;;;;;;;;;;;;25.90;11.88;101311.13;5135390;27;19915;-75
2022/04/29 04:37:20;;;;;;;;;;;;;;;25.92;11.69;101308.94;5134893;27;20019;-75
2022/04/29 04:39:45;;;;;;;;;;;;;;;25.93;11.85;101318.78;5135045;27;20014;-76
2022/04/29 04:42:10;;;;;;;;;;;;;;;25.93;11.75;101313.31;5116417;27;19947;-74
2022/04/29 04:44:36;;;;;;;;;;;;;;;25.94;11.87;101312.28;5134548;27;19922;-73
2022/04/29 04:47:01;;;;;;;;;;;;;;;25.94;11.79;101315.00;5134879;27;19916;-72
2022/04/29 04:49:26;;;;;;;;;;;;;;;25.95;11.70;101316.63;5134548;28;19915;-74
2022/04/29 04:51:52;;;;;;;;;;;;;;;25.95;11.55;101318.56;5135306;28;19919;-76
2022/04/29 04:54:17;;;;;;;;;;;;;;;25.96;11.57;101321.03;5134437;28;20330;-78
2022/04/29 04:56:42;;;;;;;;;;;;;;;25.99;11.74;101326.00;5135463;28;19915;-76
2022/04/29 04:59:07;;;;;;;;;;;;;;;25.97;11.57;101319.94;5134752;28;20373;-76
2022/04/29 05:01:33;;;;;;;;;;;;;;;25.99;11.54;101333.34;5134803;28;19923;-76
2022/04/29 05:03:58;;;;;;;;;;;;;;;25.99;11.50;101330.63;5134601;28;19926;-78
2022/04/29 05:06:23;;;;;;;;;;;;;;;26.00;11.69;101335.84;5098952;28;19922;-76
2022/04/29 05:08:48;;;;;;;;;;;;;;;26.02;11.47;101330.91;5134217;28;19916;-74
2022/04/29 05:11:14;;;;;;;;;;;;;;;26.05;11.35;101333.09;5137794;27;20230;-76
2022/04/29 05:13:39;;;;;;;;;;;;;;;26.02;11.38;101330.91;5138605;27;19916;-74
2022/04/29 05:16:05;;;;;;;;;;;;;;;26.05;11.51;101341.31;5138923;27;19916;-76
2022/04/29 05:18:30;;;;;;;;;;;;;;;26.05;11.55;101333.09;5138235;27;19915;-76
2022/04/29 05:20:55;;;;;;;;;;;;;;;26.07;11.32;101337.50;5138263;27;19916;-75
2022/04/29 05:23:20;;;;;;;;;;;;;;;26.10;11.40;101331.50;5138415;27;20010;-76
2022/04/29 05:25:46;;;;;;;;;;;;;;;26.10;11.53;101332.31;5138755;27;20338;-76
2022/04/29 05:28:11;;;;;;;;;;;;;;;26.17;11.59;101337.53;5120401;27;19979;-75
2022/04/29 05:30:37;;;;;;;;;;;;;;;26.12;11.35;101345.75;5120121;27;20379;-76
2022/04/29 05:33:02;;;;;;;;;;;;;;;26.16;11.43;101346.84;5120261;27;19976;-78
2022/04/29 05:35:27;;;;;;;;;;;;;;;26.12;11.61;101335.59;5138451;27;19915;-77
2022/04/29 05:37:53;;;;;;;;;;;;;;;26.18;11.38;101350.97;5138084;27;19919;-77
2022/04/29 05:43:02;;;;;;;;;;;;;;;26.27;11.37;101354.00;5138837;27;19922;-78
2022/04/29 05:45:27;;;;;;;;;;;;;;;26.27;11.40;101356.75;5120144;27;19954;-76
2022/04/29 05:47:53;;;;;;;;;;;;;;;26.27;11.29;101350.44;5120448;27;19916;-77
2022/04/29 05:50:18;;;;;;;;;;;;;;;26.30;11.28;101358.13;5138661;27;20009;-77
2022/04/29 05:52:43;;;;;;;;;;;;;;;26.36;11.26;101360.59;5138423;27;19951;-78
2022/04/29 05:55:09;;;;;;;;;;;;;;;26.38;11.23;101365.81;5138064;27;19922;-78
2022/04/29 05:57:34;;;;;;;;;;;;;;;26.37;11.29;101370.47;5138352;27;20002;-76
2022/04/29 05:59:59;;;;;;;;;;;;;;;26.39;11.29;101367.47;5138674;27;20369;-76
2022/04/29 06:02:25;;;;;;;;;;;;;;;26.45;11.49;101363.63;5137863;27;19916;-75
2022/04/29 06:04:50;;;;;;;;;;;;;;;26.46;11.33;101362.56;5138157;27;19926;-76
2022/04/29 06:07:16;;;;;;;;;;;;;;;26.47;11.33;101374.34;5138774;27;20002;-78
2022/04/29 06:09:41;;;;;;;;;;;;;;;26.49;11.28;101383.94;5138064;27;20388;-76
2022/04/29 06:12:07;;;;;;;;;;;;;;;26.51;11.64;101387.22;5137600;27;20057;-75
2022/04/29 06:14:34;;;;;;;;;;;;;;;26.53;11.47;101381.47;5137574;27;20009;-77
2022/04/29 06:16:59;;;;;;;;;;;;;;;26.52;11.42;101377.91;5137463;27;19930;-76
2022/04/29 06:19:24;;;;;;;;;;;;;;;26.53;11.43;101390.53;5137623;27;19915;-77
2022/04/29 06:21:49;;;;;;;;;;;;;;;26.58;11.63;101393.28;5136316;27;20316;-77
2022/04/29 06:24:15;;;;;;;;;;;;;;;26.36;11.38;101392.66;5119147;27;19955;-77
2022/04/29 06:26:40;;;;;;;;;;;;;;;25.14;12.15;101386.19;5137082;27;19934;-76
2022/04/29 06:29:05;;;;;;;;;;;;;;;25.00;12.15;101384.97;5137542;27;20362;-77
2022/04/29 06:31:31;;;;;;;;;;;;;;;24.92;12.22;101389.00;5138028;27;19919;-77
2022/04/29 06:33:56;;;;;;;;;;;;;;;25.00;12.22;101390.44;5121536;27;19915;-78
2022/04/29 06:36:21;;;;;;;;;;;;;;;24.88;12.28;101388.69;5137699;27;19916;-78
2022/04/29 06:38:47;;;;;;;;;;;;;;;24.68;12.51;101383.03;5118824;27;19965;-76
2022/04/29 06:41:12;;;;;;;;;;;;;;;24.67;12.75;101395.06;5137537;27;19968;-76
2022/04/29 06:43:37;;;;;;;;;;;;;;;24.71;12.94;101393.44;5137621;27;20010;-77
2022/04/29 06:46:02;;;;;;;;;;;;;;;24.72;12.54;101390.47;5119853;27;19915;-79
2022/04/29 06:48:28;;;;;;;;;;;;;;;24.76;12.69;101392.69;5138031;27;19915;-77
2022/04/29 06:50:53;;;;;;;;;;;;;;;24.92;12.39;101398.03;5137553;27;19961;-76
2022/04/29 06:53:18;;;;;;;;;;;;;;;25.22;11.92;101391.16;5137297;27;20265;-76
2022/04/29 06:55:44;;;;;;;;;;;;;;;25.08;12.23;101398.19;5137835;27;20006;-79
2022/04/29 06:58:09;;;;;;;;;;;;;;;25.86;11.71;101400.38;5138190;27;19983;-76
2022/04/29 07:00:34;;;;;;;;;;;;;;;26.43;11.18;101401.47;5119308;27;19922;-77
2022/04/29 07:03:03;;;;;;;;;;;;;;;26.65;11.34;101405.91;5137305;27;20007;-79
2022/04/29 07:05:31;;;;;;;;;;;;;;;26.77;11.12;101401.84;5136586;27;19927;-78
2022/04/29 07:07:57;;;;;;;;;;;;;;;26.91;10.82;101401.31;5118901;27;19922;-77
2022/04/29 07:10:22;;;;;;;;;;;;;;;27.03;10.99;101398.28;5137202;27;19915;-77
2022/04/29 07:12:47;;;;;;;;;;;;;;;27.09;10.63;101399.94;5137212;27;19922;-76
2022/04/29 07:15:13;;;;;;;;;;;;;;;27.09;10.48;101392.53;5136781;27;19915;-75
2022/04/29 07:17:39;;;;;;;;;;;;;;;27.13;10.51;101403.75;5136687;27;19921;-77
2022/04/29 07:20:05;;;;;;;;;;;;;;;27.15;10.37;101391.44;5137624;27;19915;-78
2022/04/29 07:22:30;;;;;;;;;;;;;;;27.17;10.19;101391.16;5136967;27;19920;-76
2022/04/29 07:24:56;;;;;;;;;;;;;;;27.14;10.03;101400.75;5136248;27;19923;-76
2022/04/29 07:27:21;;;;;;;;;;;;;;;27.17;9.97;101407.63;5135956;27;19927;-78
2022/04/29 07:29:47;;;;;;;;;;;;;;;27.05;9.79;101404.34;5136560;27;19919;-79
2022/04/29 07:32:12;;;;;;;;;;;;;;;27.09;9.69;101400.75;5136938;27;20015;-78
2022/04/29 07:42:49;;;;;;;;;;;;;;;27.07;9.47;101397.47;5136207;27;19981;-76
2022/04/29 07:45:14;;;;;;;;;;;;;;;27.10;9.50;101405.16;5135962;27;20350;-76
2022/04/29 07:47:40;;;;;;;;;;;;;;;27.11;9.40;101393.09;5136226;27;19938;-75
2022/04/29 07:50:08;;;;;;;;;;;;;;;27.10;9.32;101394.19;5135787;27;20381;-77
2022/04/29 07:52:34;;;;;;;;;;;;;;;27.10;9.45;101394.19;5117807;27;19920;-76
2022/04/29 07:54:59;;;;;;;;;;;;;;;27.14;9.27;101389.78;5135781;27;20414;-76
2022/04/29 07:57:24;;;;;;;;;;;;;;;27.20;9.36;101398.00;5135541;27;19915;-75
2022/04/29 07:59:50;;;;;;;;;;;;;;;27.19;9.31;101390.88;5135638;27;19916;-76
2022/04/29 08:02:15;;;;;;;;;;;;;;;27.12;9.37;101386.50;5117219;27;19968;-75
2022/04/29 08:04:40;;;;;;;;;;;;;;;27.10;9.38;101391.44;5117383;27;20242;-77
2022/04/29 08:07:06;;;;;;;;;;;;;;;27.10;9.50;101387.88;5135604;27;19960;-76
2022/04/29 08:09:31;;;;;;;;;;;;;;;27.13;9.34;101388.16;5116995;27;20385;-77
2022/04/29 08:11:56;;;;;;;;;;;;;;;27.09;9.44;101392.53;5135293;27;19915;-76
2022/04/29 08:14:22;;;;;;;;;;;;;;;27.05;9.28;101391.44;5135336;27;20302;-78
2022/04/29 08:16:48;;;;;;;;;;;;;;;27.06;9.37;101395.84;5136155;27;19915;-76
2022/04/29 08:19:14;;;;;;;;;;;;;;;27.03;9.36;101390.03;5135426;27;19926;-76
2022/04/29 08:21:39;;;;;;;;;;;;;;;27.05;9.40;101385.94;5135712;27;19915;-77
2022/04/29 08:24:04;;;;;;;;;;;;;;;27.03;9.46;101385.41;5135614;27;19927;-75
2022/04/29 08:26:29;;;;;;;;;;;;;;;26.98;9.59;101390.88;5135596;27;19924;-76
2022/04/29 08:28:55;;;;;;;;;;;;;;;26.99;9.38;101387.03;5135135;27;19991;-76
2022/04/29 08:31:21;;;;;;;;;;;;;;;27.02;9.64;101375.50;5135612;27;19962;-75
2022/04/29 08:33:46;;;;;;;;;;;;;;;27.02;9.60;101381.00;5134903;27;19954;-75
2022/04/29 08:36:11;;;;;;;;;;;;;;;27.01;9.28;101384.00;5117003;27;19916;-76
2022/04/29 08:38:37;;;;;;;;;;;;;;;27.01;9.45;101373.88;5135576;27;20386;-74
2022/04/29 08:41:03;;;;;;;;;;;;;;;27.05;9.34;101374.97;5135382;27;19983;-75
2022/04/29 08:43:28;;;;;;;;;;;;;;;27.04;9.63;101378.00;5135511;27;19927;-74
2022/04/29 08:45:53;;;;;;;;;;;;;;;27.05;9.46;101377.72;5134476;27;20358;-75
2022/04/29 08:48:19;;;;;;;;;;;;;;;27.05;9.57;101374.16;5116413;27;20261;-76
2022/04/29 08:50:44;;;;;;;;;;;;;;;27.07;9.23;101378.25;5135152;28;19972;-75
2022/04/29 08:53:09;;;;;;;;;;;;;;;27.04;9.25;101373.31;5135667;28;20262;-77
2022/04/29 08:58:51;;;;;;;;;;;;;;;26.97;9.30;101379.09;5134921;28;19922;-75
2022/04/29 09:01:16;;;;;;;;;;;;;;;26.97;9.25;101381.00;5132576;28;19920;-75
2022/04/29 09:03:42;;;;;;;;;;;;;;;27.00;9.20;101383.19;5135141;28;20006;-74
2022/04/29 09:06:07;;;;;;;;;;;;;;;27.01;9.16;101382.13;5134416;28;19958;-75
2022/04/29 09:08:40;;;;;;;;;;;;;;;27.04;9.19;101378.81;5134992;28;20010;-77
2022/04/29 09:11:05;;;;;;;;;;;;;;;27.02;9.12;101378.25;5135069;28;19915;-77
2022/04/29 09:13:31;;;;;;;;;;;;;;;27.04;9.16;101372.50;5134744;28;20400;-77
2022/04/29 09:16:00;;;;;;;;;;;;;;;27.04;9.16;101370.56;5135081;28;20348;-75
2022/04/29 09:18:29;;;;;;;;;;;;;;;27.06;9.47;101375.78;5134869;28;19926;-76
2022/04/29 09:20:54;;;;;;;;;;;;;;;27.07;9.56;101374.69;5134890;28;19922;-75
2022/04/29 09:23:26;;;;;;;;;;;;;;;27.10;9.77;101377.72;5134502;28;20280;-75
2022/04/29 09:25:51;;;;;;;;;;;;;;;27.07;9.52;101372.78;5134185;28;19946;-76
2022/04/29 09:28:16;;;;;;;;;;;;;;;27.12;9.50;101378.25;5134480;28;20366;-75
2022/04/29 09:30:42;;;;;;;;;;;;;;;27.00;9.33;101371.41;5135026;28;20010;-76
2022/04/29 09:33:16;;;;;;;;;;;;;;;27.00;9.60;101388.69;5135998;28;20002;-76
2022/04/29 09:35:42;;;;;;;;;;;;;;;27.04;9.40;101391.69;5134155;28;19919;-75
2022/04/29 09:40:52;;;;;;;;;;;;;;;27.03;9.26;101392.78;5119114;28;19942;-76
2022/04/29 09:43:21;;;;;;;;;;;;;;;27.00;9.33;101402.41;5134492;28;20358;-76
2022/04/29 09:45:47;;;;;;;;;;;;;;;27.02;9.36;101397.47;5116087;28;19938;-76
2022/04/29 09:48:12;;;;;;;;;;;;;;;27.08;9.52;101390.91;5134430;28;20357;-76
2022/04/29 09:50:50;;;;;;;;;;;;;;;27.08;9.37;101385.41;5134464;28;19919;-76
2022/04/29 09:53:20;;;;;;;;;;;;;;;27.08;9.41;101379.06;5134053;28;19916;-76
2022/04/29 09:56:03;;;;;;;;;;;;;;;27.11;9.64;101387.59;5134867;27;19926;-74
2022/04/29 09:58:29;;;;;;;;;;;;;;;27.16;9.64;101382.13;5137987;27;19915;-78
2022/04/29 10:00:54;;;;;;;;;;;;;;;27.10;9.84;101380.47;5137800;27;19923;-79
2022/04/29 10:03:19;;;;;;;;;;;;;;;27.05;9.82;101372.22;5119883;27;19915;-77
2022/04/29 10:05:44;;;;;;;;;;;;;;;27.14;9.57;101378.81;5137816;27;19926;-77
2022/04/29 10:08:10;;;;;;;;;;;;;;;27.15;9.53;101385.94;5138054;27;20264;-77
2022/04/29 10:10:35;;;;;;;;;;;;;;;27.05;9.61;101396.91;5137593;27;19915;-78
2022/04/29 10:13:00;;;;;;;;;;;;;;;27.10;9.52;101388.69;5119412;27;19920;-78
2022/04/29 10:15:25;;;;;;;;;;;;;;;26.99;9.46;101400.75;5137461;27;19922;-76
2022/04/29 10:23:20;;;;;;;;;;;;;;;27.08;9.85;101401.03;5137261;27;19926;-75
2022/04/29 10:25:45;;;;;;;;;;;;;;;27.15;9.63;101396.91;5136864;27;19927;-76
2022/04/29 10:28:15;;;;;;;;;;;;;;;27.14;9.59;101394.44;5119081;27;20322;-75
2022/04/29 10:30:40;;;;;;;;;;;;;;;27.17;9.49;101391.97;5137400;27;20018;-75
2022/04/29 10:33:06;;;;;;;;;;;;;;;27.19;9.46;101379.91;5137391;27;19919;-74
2022/04/29 10:35:45;;;;;;;;;;;;;;;27.14;9.57;101380.72;5137295;27;20269;-75
2022/04/29 10:38:26;;;;;;;;;;;;;;;27.16;9.68;101382.13;5137331;27;20472;-76
2022/04/29 10:41:09;;;;;;;;;;;;;;;27.15;10.03;101374.97;5136959;27;19927;-77
2022/04/29 10:43:46;;;;;;;;;;;;;;;27.18;9.81;101379.06;5136974;27;20373;-76
2022/04/29 10:46:14;;;;;;;;;;;;;;;27.12;9.66;101375.50;5137150;27;19915;-76
2022/04/29 10:48:40;;;;;;;;;;;;;;;27.05;9.86;101368.69;5136912;27;19923;-77
2022/04/29 10:51:08;;;;;;;;;;;;;;;27.08;9.67;101374.44;5137179;27;19916;-75
2022/04/29 10:53:37;;;;;;;;;;;;;;;27.06;9.98;101364.81;5136930;27;20006;-76
2022/04/29 10:56:21;;;;;;;;;;;;;;;27.12;9.91;101371.97;5136623;27;19958;-78
2022/04/29 10:58:46;;;;;;;;;;;;;;;27.08;9.82;101357.13;5136839;27;20373;-76
2022/04/29 11:01:14;;;;;;;;;;;;;;;27.09;9.71;101359.59;5136434;27;20015;-77
2022/04/29 11:03:41;;;;;;;;;;;;;;;27.12;9.71;101359.06;5137255;27;20002;-77
2022/04/29 11:06:10;;;;;;;;;;;;;;;27.11;9.40;101357.44;5136590;27;19923;-76
2022/04/29 11:08:36;;;;;;;;;;;;;;;27.10;9.44;101355.75;5135589;27;19916;-76
2022/04/29 11:11:01;;;;;;;;;;;;;;;27.09;9.38;101359.59;5117804;27;19923;-77
2022/04/29 11:13:26;;;;;;;;;;;;;;;27.07;9.16;101366.47;5118167;27;19922;-77
2022/04/29 11:15:52;;;;;;;;;;;;;;;27.08;9.04;101357.97;5136190;27;19958;-77
2022/04/29 11:18:19;;;;;;;;;;;;;;;27.08;9.04;101352.47;5117860;27;19919;-77
2022/04/29 11:20:45;;;;;;;;;;;;;;;27.06;9.00;101365.66;5136542;27;19920;-76
2022/04/29 11:25:58;;;;;;;;;;;;;;;26.86;8.36;101365.66;5136212;27;19972;-76
2022/04/29 11:28:23;;;;;;;;;;;;;;;26.96;8.40;101360.16;5136422;27;19919;-76
2022/04/29 11:30:49;;;;;;;;;;;;;;;26.99;8.25;101354.13;5136050;27;19961;-75
2022/04/29 11:33:20;;;;;;;;;;;;;;;26.99;8.29;101362.34;5135775;27;20018;-75
2022/04/29 11:35:45;;;;;;;;;;;;;;;27.03;8.22;101366.19;5137085;27;20006;-76
2022/04/29 11:38:10;;;;;;;;;;;;;;;27.02;8.14;101358.25;5136344;27;20329;-76
2022/04/29 11:40:39;;;;;;;;;;;;;;;27.03;8.28;101355.22;5135759;27;19915;-75
2022/04/29 11:43:08;;;;;;;;;;;;;;;27.01;8.31;101362.06;5136625;27;19915;-78
2022/04/29 11:45:33;;;;;;;;;;;;;;;26.94;8.08;101357.69;5136171;27;19950;-78
2022/04/29 11:48:05;;;;;;;;;;;;;;;26.97;8.14;101353.56;5118009;27;19970;-77
2022/04/29 11:50:31;;;;;;;;;;;;;;;27.00;8.19;101350.28;5136791;27;20247;-77
2022/04/29 11:53:02;;;;;;;;;;;;;;;27.02;8.19;101359.06;5135563;27;19915;-76
2022/04/29 11:55:27;;;;;;;;;;;;;;;27.06;8.28;101351.94;5135668;27;19980;-75
2022/04/29 11:57:55;;;;;;;;;;;;;;;27.04;8.40;101356.03;5135600;27;20009;-76
2022/04/29 12:00:25;;;;;;;;;;;;;;;27.04;8.41;101361.53;5136157;27;19942;-77
2022/04/29 12:02:50;;;;;;;;;;;;;;;27.01;8.20;101354.69;5135704;27;19915;-76
2022/04/29 12:05:16;;;;;;;;;;;;;;;27.02;8.21;101359.06;5117196;27;19998;-77
2022/04/29 12:07:45;;;;;;;;;;;;;;;27.02;8.32;101355.50;5135841;27;19980;-76
2022/04/29 12:10:21;;;;;;;;;;;;;;;27.04;8.09;101345.88;5117510;27;19923;-77
2022/04/29 12:12:47;;;;;;;;;;;;;;;26.98;7.77;101345.06;5135849;27;20379;-75
2022/04/29 12:15:12;;;;;;;;;;;;;;;26.95;7.66;101353.03;5117446;27;19919;-77
2022/04/29 12:17:38;;;;;;;;;;;;;;;26.91;7.60;101346.47;5135581;27;20270;-75
2022/04/29 12:20:08;;;;;;;;;;;;;;;26.90;7.53;101345.63;5134325;27;19923;-76
2022/04/29 12:22:34;;;;;;;;;;;;;;;26.87;7.15;101345.34;5135414;27;19919;-75
2022/04/29 12:25:18;;;;;;;;;;;;;;;26.89;7.33;101340.41;5135792;27;19930;-78
2022/04/29 12:27:43;;;;;;;;;;;;;;;26.86;7.22;101338.22;5135504;27;19916;-78
2022/04/29 12:36:06;;;;;;;;;;;;;;;26.85;7.13;101339.31;5052584;28;19970;-77
2022/04/29 12:38:35;;;;;;;;;;;;;;;26.84;7.08;101343.13;5052111;28;20375;-76
2022/04/29 12:41:13;;;;;;;;;;;;;;;26.87;6.85;101345.34;5051885;28;19917;-76
2022/04/29 12:43:41;;;;;;;;;;;;;;;26.81;7.13;101340.97;5052329;28;19917;-76
2022/04/29 12:46:16;;;;;;;;;;;;;;;26.86;7.03;101343.72;5051956;28;19917;-77
2022/04/29 12:48:45;;;;;;;;;;;;;;;26.86;6.88;101346.47;5052124;28;19920;-77
2022/04/29 12:51:23;;;;;;;;;;;;;;;26.82;6.88;101339.84;5052497;28;20007;-76
2022/04/29 12:53:48;;;;;;;;;;;;;;;26.78;6.95;101332.16;5052206;28;19944;-77
2022/04/29 12:56:21;;;;;;;;;;;;;;;26.66;6.91;101345.31;5035614;28;19917;-77
2022/04/29 12:58:47;;;;;;;;;;;;;;;26.73;6.85;101340.41;5052070;28;19917;-79
2022/04/29 13:01:12;;;;;;;;;;;;;;;26.74;6.80;101328.34;5051958;28;20468;-78
2022/04/29 13:03:37;;;;;;;;;;;;;;;26.74;6.92;101331.09;5035691;28;20043;-77
2022/04/29 13:06:02;;;;;;;;;;;;;;;26.72;6.97;101338.75;5052206;28;19920;-78
2022/04/29 13:08:28;;;;;;;;;;;;;;;26.71;6.67;101320.66;5052359;28;19959;-77